Time;durP1;ratioP1;P1;durP2;ratioP2;P2;SDS_P1;SDS_P2;PMS_P1;PMS_P2;Temp;Humidity;BMP_temperature;BMP_pressure;BME280_temperature;BME280_humidity;BME280_pressure;Samples;Min_cycle;Max_cycle;Signal;HPM_P1;HPM_P2
2023/05/11 00:01:18;;;;;;;0.20;0.20;;;11.50;99.90;;;;;;4942295;28;20043;-80
2023/05/11 00:03:43;;;;;;;0.10;0.10;;;11.50;99.90;;;;;;4930183;29;20058;-81
2023/05/11 00:06:09;;;;;;;0.10;0.10;;;11.60;99.90;;;;;;4933877;29;20067;-81
2023/05/11 00:08:35;;;;;;;0.20;0.20;;;11.50;99.90;;;;;;4931519;29;20043;-80
2023/05/11 00:11:01;;;;;;;0.10;0.10;;;11.50;99.90;;;;;;4932423;28;20315;-79
2023/05/11 00:13:27;;;;;;;0.10;0.10;;;11.50;99.90;;;;;;4944233;28;20047;-80
2023/05/11 00:15:53;;;;;;;0.10;0.10;;;11.50;99.90;;;;;;4931466;29;20357;-80
2023/05/11 00:18:19;;;;;;;0.20;0.20;;;11.50;99.90;;;;;;4949516;28;20051;-80
2023/05/11 00:20:44;;;;;;;0.20;0.20;;;11.50;99.90;;;;;;4929535;29;20043;-80
2023/05/11 00:23:10;;;;;;;0.13;0.13;;;11.50;99.90;;;;;;4933156;28;20047;-79
2023/05/11 00:25:36;;;;;;;0.20;0.20;;;11.50;99.90;;;;;;4933052;28;20122;-80
2023/05/11 00:28:01;;;;;;;0.10;0.10;;;11.80;99.90;;;;;;4939767;29;20059;-79
2023/05/11 00:30:27;;;;;;;0.10;0.10;;;11.50;99.90;;;;;;4954403;28;20047;-79
2023/05/11 00:32:53;;;;;;;0.15;0.15;;;11.50;99.90;;;;;;4954957;28;20043;-80
2023/05/11 00:35:18;;;;;;;0.10;0.10;;;11.50;99.90;;;;;;4955464;28;20377;-79
2023/05/11 00:37:44;;;;;;;0.20;0.20;;;11.50;99.90;;;;;;4939888;28;20102;-79
2023/05/11 00:40:10;;;;;;;0.10;0.10;;;11.50;99.90;;;;;;4962086;28;20079;-79
2023/05/11 00:42:35;;;;;;;0.10;0.10;;;11.60;99.90;;;;;;4951568;28;20070;-79
2023/05/11 00:45:01;;;;;;;0.20;0.20;;;11.60;99.90;;;;;;4936749;29;20094;-80
2023/05/11 00:47:27;;;;;;;0.20;0.20;;;11.50;99.90;;;;;;4956753;28;20054;-79
2023/05/11 00:49:53;;;;;;;0.10;0.10;;;11.50;99.90;;;;;;4930363;29;20111;-79
2023/05/11 00:52:20;;;;;;;0.20;0.20;;;11.60;99.90;;;;;;4947245;28;20043;-79
2023/05/11 00:54:47;;;;;;;0.10;0.10;;;11.60;99.90;;;;;;4955528;28;20042;-79
2023/05/11 00:57:13;;;;;;;0.10;0.10;;;11.60;99.90;;;;;;4953370;28;20486;-79
2023/05/11 00:59:39;;;;;;;0.20;0.20;;;11.60;99.90;;;;;;4931159;29;20415;-79
2023/05/11 01:02:05;;;;;;;0.20;0.20;;;11.60;99.90;;;;;;4939307;28;20093;-79
2023/05/11 01:04:31;;;;;;;0.20;0.20;;;11.60;99.90;;;;;;4955407;28;20263;-79
2023/05/11 01:07:05;;;;;;;0.17;0.17;;;11.60;99.90;;;;;;4938853;28;20051;-79
2023/05/11 01:09:57;;;;;;;0.10;0.10;;;11.70;99.90;;;;;;4949660;28;20043;-79
2023/05/11 01:13:00;;;;;;;0.10;0.10;;;11.60;99.90;;;;;;4951795;28;20047;-79
2023/05/11 01:15:50;;;;;;;0.10;0.10;;;11.50;99.90;;;;;;4921810;28;20325;-79
2023/05/11 01:18:42;;;;;;;0.13;0.13;;;11.50;99.90;;;;;;4925023;29;20090;-79
2023/05/11 01:21:09;;;;;;;0.10;0.10;;;11.50;99.90;;;;;;4951993;28;20042;-79
2023/05/11 01:24:02;;;;;;;0.20;0.20;;;11.50;99.90;;;;;;4929804;29;20043;-79
2023/05/11 01:26:33;;;;;;;0.10;0.10;;;11.50;99.90;;;;;;4938386;29;20039;-79
2023/05/11 01:29:20;;;;;;;0.10;0.10;;;11.50;99.90;;;;;;4939228;29;20047;-79
2023/05/11 01:31:48;;;;;;;0.20;0.20;;;11.50;99.90;;;;;;4936350;29;20040;-79
2023/05/11 01:34:21;;;;;;;0.10;0.10;;;11.50;99.90;;;;;;4936916;28;20058;-79
2023/05/11 01:37:05;;;;;;;0.10;0.10;;;11.50;99.90;;;;;;4954058;29;20070;-79
2023/05/11 01:39:37;;;;;;;0.20;0.20;;;11.70;99.90;;;;;;4938044;28;20055;-79
2023/05/11 01:42:09;;;;;;;0.10;0.10;;;11.40;99.90;;;;;;4954542;28;20045;-79
2023/05/11 01:44:38;;;;;;;0.10;0.10;;;11.40;99.90;;;;;;4952049;28;20043;-79
2023/05/11 01:47:07;;;;;;;0.10;0.10;;;11.40;99.90;;;;;;4951381;28;20042;-79
2023/05/11 01:49:37;;;;;;;0.10;0.10;;;11.40;99.90;;;;;;4953608;28;20047;-79
2023/05/11 01:52:04;;;;;;;0.20;0.20;;;11.40;99.90;;;;;;4952668;28;20439;-79
2023/05/11 01:54:31;;;;;;;0.10;0.10;;;11.40;99.90;;;;;;4935143;29;20039;-79
2023/05/11 01:56:59;;;;;;;0.20;0.20;;;11.40;99.90;;;;;;4956016;28;20082;-79
2023/05/11 01:59:26;;;;;;;0.10;0.10;;;11.60;99.90;;;;;;4950107;28;20046;-79
2023/05/11 02:01:53;;;;;;;0.20;0.20;;;11.40;99.90;;;;;;4948763;28;20052;-79
2023/05/11 02:04:20;;;;;;;0.10;0.10;;;11.70;99.90;;;;;;4948177;28;20384;-79
2023/05/11 02:06:48;;;;;;;0.10;0.10;;;11.30;99.90;;;;;;4934897;29;20050;-80
2023/05/11 02:09:16;;;;;;;0.10;0.10;;;11.30;99.90;;;;;;4916727;29;20169;-79
2023/05/11 02:11:44;;;;;;;0.10;0.10;;;11.40;99.90;;;;;;4928111;29;20047;-80
2023/05/11 02:14:11;;;;;;;0.20;0.20;;;11.40;99.90;;;;;;4935368;28;20393;-80
2023/05/11 02:16:37;;;;;;;0.20;0.20;;;11.40;99.90;;;;;;4951247;28;20456;-80
2023/05/11 02:19:06;;;;;;;0.10;0.10;;;11.40;99.90;;;;;;4936487;28;20047;-80
2023/05/11 02:21:33;;;;;;;0.20;0.20;;;11.40;99.90;;;;;;4921397;29;20679;-80
2023/05/11 02:24:02;;;;;;;0.10;0.10;;;11.40;99.90;;;;;;4934853;29;20562;-80
2023/05/11 02:26:28;;;;;;;0.10;0.10;;;11.40;99.90;;;;;;4926448;29;20125;-80
2023/05/11 02:28:54;;;;;;;0.20;0.20;;;11.30;99.90;;;;;;4923227;29;20080;-80
2023/05/11 02:31:25;;;;;;;0.17;0.17;;;11.30;99.90;;;;;;4934702;28;20047;-79
2023/05/11 02:33:54;;;;;;;0.10;0.10;;;11.40;99.90;;;;;;4950458;29;20043;-80
2023/05/11 02:36:22;;;;;;;0.13;0.13;;;11.30;99.90;;;;;;4935011;29;20407;-80
2023/05/11 02:38:53;;;;;;;0.10;0.10;;;11.30;99.90;;;;;;4934253;29;20062;-80
2023/05/11 02:41:24;;;;;;;0.10;0.10;;;11.30;99.90;;;;;;4930873;29;20415;-80
2023/05/11 02:43:51;;;;;;;;;;;11.40;99.90;;;;;;4951669;28;20047;-80
2023/05/11 02:46:21;;;;;;;0.10;0.10;;;11.30;99.90;;;;;;4932710;29;19925;-80
2023/05/11 02:48:53;;;;;;;0.13;0.13;;;11.30;99.90;;;;;;4934518;28;20047;-79
2023/05/11 02:51:23;;;;;;;0.20;0.20;;;11.30;99.90;;;;;;4933621;29;20049;-80
2023/05/11 02:53:51;;;;;;;0.20;0.20;;;11.30;99.90;;;;;;4936297;29;20418;-80
2023/05/11 02:56:18;;;;;;;0.20;0.20;;;11.40;99.90;;;;;;4932290;29;20043;-79
2023/05/11 02:58:44;;;;;;;0.20;0.20;;;11.40;99.90;;;;;;4949867;28;20509;-80
2023/05/11 03:01:11;;;;;;;0.13;0.13;;;11.60;99.90;;;;;;4949635;28;20035;-80
2023/05/11 03:03:37;;;;;;;0.10;0.10;;;11.40;99.90;;;;;;4950793;28;20055;-80
2023/05/11 03:06:05;;;;;;;0.20;0.20;;;11.30;99.90;;;;;;4949104;28;20028;-80
2023/05/11 03:08:31;;;;;;;0.20;0.20;;;11.30;99.90;;;;;;4949223;28;20039;-80
2023/05/11 03:10:57;;;;;;;0.20;0.20;;;11.40;99.90;;;;;;4923464;28;20039;-80
2023/05/11 03:13:24;;;;;;;0.10;0.10;;;11.30;99.90;;;;;;4938508;29;20047;-80
2023/05/11 03:15:51;;;;;;;0.10;0.10;;;11.30;99.90;;;;;;4951620;29;20054;-80
2023/05/11 03:18:18;;;;;;;0.10;0.10;;;11.50;99.90;;;;;;4954398;28;20476;-79
2023/05/11 03:20:45;;;;;;;0.10;0.10;;;11.40;99.90;;;;;;4932750;29;20453;-80
2023/05/11 03:23:13;;;;;;;0.20;0.20;;;11.30;99.90;;;;;;4931304;28;20383;-80
2023/05/11 03:25:41;;;;;;;0.20;0.20;;;10.90;99.90;;;;;;4943869;28;20043;-79
2023/05/11 03:28:08;;;;;;;0.10;0.10;;;11.30;99.90;;;;;;4928095;28;20130;-79
2023/05/11 03:30:35;;;;;;;0.20;0.20;;;11.40;99.90;;;;;;4933026;29;20071;-80
2023/05/11 03:33:01;;;;;;;0.20;0.20;;;11.40;99.90;;;;;;4932499;29;20053;-80
2023/05/11 03:35:32;;;;;;;0.20;0.20;;;11.30;99.90;;;;;;4945790;28;20051;-80
2023/05/11 03:37:58;;;;;;;0.10;0.10;;;11.80;99.90;;;;;;4932980;29;20051;-80
2023/05/11 03:40:28;;;;;;;0.10;0.10;;;11.30;99.90;;;;;;4934238;28;21575;-80
2023/05/11 03:42:56;;;;;;;0.20;0.20;;;11.30;99.90;;;;;;4946478;28;20479;-80
2023/05/11 03:45:24;;;;;;;0.10;0.10;;;11.30;99.90;;;;;;4933110;29;20047;-80
2023/05/11 03:47:51;;;;;;;0.10;0.10;;;11.50;99.90;;;;;;4950955;28;20053;-80
2023/05/11 03:50:23;;;;;;;0.20;0.20;;;11.40;99.90;;;;;;4940199;28;20122;-80
2023/05/11 03:52:49;;;;;;;0.20;0.20;;;11.40;99.90;;;;;;4943382;28;20187;-80
2023/05/11 03:55:15;;;;;;;0.20;0.20;;;11.40;99.90;;;;;;4951605;29;20129;-80
2023/05/11 03:57:41;;;;;;;0.20;0.20;;;11.40;99.90;;;;;;4933803;29;20433;-80
2023/05/11 04:00:10;;;;;;;0.20;0.20;;;11.40;99.90;;;;;;4949211;29;20058;-79
2023/05/11 04:02:36;;;;;;;0.20;0.20;;;11.40;99.90;;;;;;4933510;29;20054;-80
2023/05/11 04:05:11;;;;;;;0.20;0.20;;;11.40;99.90;;;;;;4946732;28;20377;-80
2023/05/11 04:07:37;;;;;;;0.10;0.10;;;11.40;99.90;;;;;;4932193;29;20427;-80
2023/05/11 04:10:05;;;;;;;0.20;0.20;;;11.40;99.90;;;;;;4951095;28;20043;-79
2023/05/11 04:12:31;;;;;;;0.10;0.10;;;11.40;99.90;;;;;;4933935;29;20073;-81
2023/05/11 04:14:57;;;;;;;0.10;0.10;;;11.40;99.90;;;;;;4930420;29;20050;-82
2023/05/11 04:17:23;;;;;;;0.10;0.10;;;11.40;99.90;;;;;;4949984;28;20098;-80
2023/05/11 04:19:48;;;;;;;0.10;0.10;;;11.40;99.90;;;;;;4939326;28;21439;-81
2023/05/11 04:22:15;;;;;;;0.10;0.10;;;11.40;99.90;;;;;;4931091;28;20166;-79
2023/05/11 04:24:41;;;;;;;0.20;0.20;;;11.40;99.90;;;;;;4932050;29;20035;-81
2023/05/11 04:27:06;;;;;;;0.20;0.20;;;11.40;99.90;;;;;;4939624;28;20050;-82
2023/05/11 04:29:32;;;;;;;0.10;0.10;;;11.40;99.90;;;;;;4928595;28;20556;-81
2023/05/11 04:31:57;;;;;;;0.20;0.20;;;11.40;99.90;;;;;;4943274;28;20071;-80
2023/05/11 04:34:23;;;;;;;0.20;0.20;;;11.60;99.90;;;;;;4923013;29;20039;-82
2023/05/11 04:36:50;;;;;;;0.10;0.10;;;11.30;99.90;;;;;;4933867;29;20499;-82
2023/05/11 04:39:16;;;;;;;0.10;0.10;;;11.40;99.90;;;;;;4929054;28;20130;-81
2023/05/11 04:41:45;;;;;;;0.10;0.10;;;11.40;99.90;;;;;;4947942;28;20182;-81
2023/05/11 04:44:11;;;;;;;0.10;0.10;;;11.40;99.90;;;;;;4944385;28;20043;-81
2023/05/11 04:46:40;;;;;;;0.20;0.20;;;11.40;99.90;;;;;;4948241;28;20047;-81
2023/05/11 04:49:05;;;;;;;0.17;0.17;;;11.40;99.90;;;;;;4948896;28;20102;-82
2023/05/11 04:51:34;;;;;;;0.10;0.10;;;11.30;99.90;;;;;;4922287;28;20478;-81
2023/05/11 04:53:59;;;;;;;0.15;0.15;;;11.30;99.90;;;;;;4942991;28;20063;-82
2023/05/11 04:56:25;;;;;;;0.13;0.13;;;11.60;99.90;;;;;;4924634;28;20182;-79
2023/05/11 04:58:51;;;;;;;0.10;0.10;;;11.30;99.90;;;;;;4935496;28;20047;-82
2023/05/11 05:01:16;;;;;;;0.20;0.20;;;11.40;99.90;;;;;;4945880;28;20047;-82
2023/05/11 05:03:42;;;;;;;0.10;0.10;;;11.40;99.90;;;;;;4935607;28;20039;-81
2023/05/11 05:06:08;;;;;;;0.20;0.20;;;11.40;99.90;;;;;;4939424;28;20123;-82
2023/05/11 05:08:34;;;;;;;0.10;0.10;;;11.40;99.90;;;;;;4921389;28;20054;-82
2023/05/11 05:10:59;;;;;;;0.10;0.10;;;11.40;99.90;;;;;;4944216;28;20039;-82
2023/05/11 05:13:25;;;;;;;0.10;0.10;;;11.50;99.90;;;;;;4929085;28;20049;-81
2023/05/11 05:15:51;;;;;;;0.20;0.20;;;11.40;99.90;;;;;;4929164;28;20530;-82
2023/05/11 05:18:16;;;;;;;0.10;0.10;;;11.40;99.90;;;;;;4929445;28;20488;-81
2023/05/11 05:20:42;;;;;;;0.20;0.20;;;11.40;99.90;;;;;;4942115;28;20689;-81
2023/05/11 05:23:08;;;;;;;0.10;0.10;;;11.70;99.90;;;;;;4936359;29;20055;-81
2023/05/11 05:25:33;;;;;;;0.13;0.13;;;11.40;99.90;;;;;;4936858;29;20097;-81
2023/05/11 05:27:59;;;;;;;0.13;0.13;;;11.40;99.90;;;;;;4944449;28;20055;-82
2023/05/11 05:30:25;;;;;;;0.10;0.10;;;11.40;99.90;;;;;;4954803;28;20046;-82
2023/05/11 05:32:50;;;;;;;0.20;0.20;;;11.40;99.90;;;;;;4958188;28;20085;-81
2023/05/11 05:35:16;;;;;;;0.17;0.17;;;11.50;99.90;;;;;;4953239;28;20471;-82
2023/05/11 05:37:42;;;;;;;0.10;0.10;;;11.40;99.90;;;;;;4942346;29;20042;-81
2023/05/11 05:40:08;;;;;;;0.17;0.17;;;11.50;99.90;;;;;;4934156;28;20403;-81
2023/05/11 05:42:34;;;;;;;0.10;0.10;;;11.50;99.90;;;;;;4934997;28;20502;-82
2023/05/11 05:45:00;;;;;;;0.20;0.20;;;11.50;99.90;;;;;;4926135;29;20043;-81
2023/05/11 05:47:25;;;;;;;0.20;0.20;;;11.50;99.90;;;;;;4953002;28;20039;-80
2023/05/11 05:49:51;;;;;;;0.20;0.20;;;11.60;99.90;;;;;;4935123;28;20041;-79
2023/05/11 05:52:19;;;;;;;0.13;0.13;;;11.50;99.90;;;;;;4938155;28;20079;-79
2023/05/11 05:54:45;;;;;;;0.10;0.10;;;11.60;99.90;;;;;;4936938;29;20051;-82
2023/05/11 05:57:11;;;;;;;0.15;0.15;;;11.70;99.90;;;;;;4937736;29;20547;-81
2023/05/11 05:59:36;;;;;;;0.10;0.10;;;12.10;99.90;;;;;;4936388;29;20581;-81
2023/05/11 06:02:02;;;;;;;0.10;0.10;;;11.80;99.90;;;;;;4935387;28;20098;-81
2023/05/11 06:04:28;;;;;;;0.10;0.10;;;11.80;99.90;;;;;;4950106;28;20760;-81
2023/05/11 06:06:54;;;;;;;0.13;0.13;;;11.80;99.90;;;;;;4933648;28;20042;-81
2023/05/11 06:09:20;;;;;;;0.13;0.13;;;11.80;99.90;;;;;;4935755;28;20040;-80
2023/05/11 06:11:46;;;;;;;0.10;0.10;;;11.90;99.90;;;;;;4925733;28;20256;-82
2023/05/11 06:14:11;;;;;;;0.20;0.20;;;12.10;99.90;;;;;;4933108;29;20475;-82
2023/05/11 06:16:37;;;;;;;0.20;0.20;;;11.90;99.90;;;;;;4938483;29;20143;-82
2023/05/11 06:19:03;;;;;;;0.15;0.15;;;12.00;99.90;;;;;;4954715;28;20043;-81
2023/05/11 06:21:29;;;;;;;0.13;0.13;;;11.90;99.90;;;;;;4935549;29;20043;-82
2023/05/11 06:23:55;;;;;;;0.10;0.10;;;12.00;99.90;;;;;;4936925;29;20051;-82
2023/05/11 06:26:23;;;;;;;0.10;0.10;;;12.00;99.90;;;;;;4935326;29;20031;-82
2023/05/11 06:28:50;;;;;;;0.10;0.10;;;12.10;99.90;;;;;;4935892;29;20176;-82
2023/05/11 06:31:16;;;;;;;0.10;0.10;;;12.10;99.90;;;;;;4935205;29;20055;-82
2023/05/11 06:33:41;;;;;;;0.15;0.15;;;12.10;99.90;;;;;;4936671;29;20230;-82
2023/05/11 06:36:07;;;;;;;0.20;0.20;;;12.10;99.90;;;;;;4935117;29;20150;-82
2023/05/11 06:38:33;;;;;;;0.13;0.13;;;12.20;99.90;;;;;;4936853;29;20051;-82
2023/05/11 06:40:59;;;;;;;0.10;0.10;;;12.20;99.90;;;;;;4953416;29;20035;-82
2023/05/11 06:43:25;;;;;;;0.13;0.13;;;12.30;99.90;;;;;;4948960;28;20482;-82
2023/05/11 06:45:50;;;;;;;0.10;0.10;;;12.20;99.90;;;;;;4969549;28;20038;-82
2023/05/11 06:48:16;;;;;;;0.20;0.20;;;12.60;99.90;;;;;;4955571;28;20096;-82
2023/05/11 06:50:42;;;;;;;0.10;0.10;;;12.30;99.90;;;;;;4954148;28;20182;-82
2023/05/11 06:53:09;;;;;;;0.10;0.10;;;12.40;99.90;;;;;;4955866;28;20417;-82
2023/05/11 06:55:35;;;;;;;0.10;0.10;;;12.40;99.90;;;;;;4972813;28;20407;-82
2023/05/11 06:58:01;;;;;;;0.10;0.10;;;12.40;99.90;;;;;;4972901;28;20046;-82
2023/05/11 07:00:32;;;;;;;0.20;0.20;;;12.40;99.90;;;;;;4954054;28;20047;-81
2023/05/11 07:02:58;;;;;;;0.10;0.10;;;12.40;99.90;;;;;;4970501;28;20533;-82
2023/05/11 07:05:24;;;;;;;0.20;0.20;;;12.60;99.90;;;;;;4970729;28;20400;-81
2023/05/11 07:07:50;;;;;;;0.10;0.10;;;12.50;99.90;;;;;;4972777;28;20456;-81
2023/05/11 07:10:16;;;;;;;0.20;0.20;;;12.60;99.90;;;;;;4955278;28;20187;-81
2023/05/11 07:12:42;;;;;;;0.20;0.20;;;12.60;99.90;;;;;;4935977;29;20129;-81
2023/05/11 07:15:08;;;;;;;0.15;0.15;;;12.70;99.90;;;;;;4921856;29;20134;-81
2023/05/11 07:17:33;;;;;;;0.20;0.20;;;12.70;99.90;;;;;;4932263;29;20070;-81
2023/05/11 07:22:34;;;;;;;0.20;0.20;;;12.80;99.90;;;;;;5228195;23;20530;-81
2023/05/11 07:25:00;;;;;;;0.10;0.10;;;13.00;99.90;;;;;;4969864;28;20047;-81
2023/05/11 07:27:26;;;;;;;0.10;0.10;;;12.80;99.90;;;;;;4971109;28;20546;-81
2023/05/11 07:29:51;;;;;;;0.20;0.20;;;12.80;99.90;;;;;;4971075;28;20062;-81
2023/05/11 07:32:17;;;;;;;0.10;0.10;;;12.90;99.90;;;;;;4969761;28;20069;-81
2023/05/11 07:34:43;;;;;;;0.13;0.13;;;12.70;99.90;;;;;;4970750;28;20057;-81
2023/05/11 07:37:10;;;;;;;0.10;0.10;;;12.80;99.90;;;;;;4968860;28;20049;-80
2023/05/11 07:39:36;;;;;;;0.10;0.10;;;12.90;99.90;;;;;;4950890;29;20078;-81
2023/05/11 07:42:02;;;;;;;0.10;0.10;;;12.90;99.90;;;;;;4951290;29;20101;-81
2023/05/11 07:44:28;;;;;;;0.10;0.10;;;12.90;99.90;;;;;;4951627;29;20046;-81
2023/05/11 07:46:54;;;;;;;0.10;0.10;;;12.90;99.90;;;;;;4951287;28;20047;-81
2023/05/11 07:49:19;;;;;;;0.17;0.17;;;13.00;99.90;;;;;;4951128;28;20137;-81
2023/05/11 07:51:45;;;;;;;0.20;0.20;;;13.00;99.90;;;;;;4951336;29;20105;-81
2023/05/11 07:54:10;;;;;;;0.20;0.20;;;13.00;99.90;;;;;;4950214;29;20062;-81
2023/05/11 07:56:36;;;;;;;0.10;0.10;;;13.00;99.90;;;;;;4952444;29;20491;-81
2023/05/11 07:59:02;;;;;;;0.10;0.10;;;13.10;99.90;;;;;;4952070;29;20373;-81
2023/05/11 08:01:27;;;;;;;0.15;0.15;;;13.00;99.90;;;;;;4949952;29;20419;-81
2023/05/11 08:03:53;;;;;;;0.20;0.20;;;13.00;99.90;;;;;;4950914;29;20054;-80
2023/05/11 08:06:19;;;;;;;0.10;0.10;;;13.00;99.90;;;;;;4950057;29;20047;-81
2023/05/11 08:08:44;;;;;;;0.20;0.20;;;13.00;99.90;;;;;;4966597;28;20133;-81
2023/05/11 08:11:10;;;;;;;0.20;0.20;;;13.00;99.90;;;;;;4971349;28;20039;-81
2023/05/11 08:13:35;;;;;;;0.20;0.20;;;13.00;99.90;;;;;;4969715;28;20520;-81
2023/05/11 08:16:01;;;;;;;0.10;0.10;;;13.00;99.90;;;;;;4968480;28;20047;-81
2023/05/11 08:18:26;;;;;;;0.20;0.20;;;13.00;99.90;;;;;;4970149;28;20049;-81
2023/05/11 08:20:52;;;;;;;0.20;0.20;;;13.00;99.90;;;;;;4969473;28;20046;-81
2023/05/11 08:23:21;;;;;;;0.15;0.15;;;13.00;99.90;;;;;;4991129;28;20057;-81
2023/05/11 08:25:52;;;;;;;0.20;0.20;;;13.00;99.90;;;;;;4972994;28;20050;-81
2023/05/11 08:28:23;;;;;;;0.10;0.10;;;13.00;99.90;;;;;;4972801;28;20046;-81
2023/05/11 08:30:56;;;;;;;0.10;0.10;;;13.00;99.90;;;;;;4989149;28;20129;-81
2023/05/11 08:33:22;;;;;;;0.20;0.20;;;13.00;99.90;;;;;;4991020;28;20049;-81
2023/05/11 08:35:51;;;;;;;0.20;0.20;;;13.10;99.90;;;;;;4989717;28;20125;-81
2023/05/11 08:38:19;;;;;;;0.10;0.10;;;13.10;99.90;;;;;;4963872;28;20046;-81
2023/05/11 08:40:48;;;;;;;0.10;0.10;;;13.20;99.90;;;;;;4970116;28;20518;-81
2023/05/11 08:43:18;;;;;;;0.10;0.10;;;13.20;99.90;;;;;;4953279;28;20137;-81
2023/05/11 08:45:48;;;;;;;0.17;0.17;;;13.20;99.90;;;;;;4956087;28;20050;-81
2023/05/11 08:48:16;;;;;;;0.10;0.10;;;13.30;99.90;;;;;;4957246;28;20106;-81
2023/05/11 08:50:44;;;;;;;0.15;0.15;;;13.20;99.90;;;;;;4974743;28;20050;-81
2023/05/11 08:53:10;;;;;;;0.10;0.10;;;13.40;99.90;;;;;;4975471;28;20049;-81
2023/05/11 08:55:37;;;;;;;0.20;0.20;;;13.30;99.90;;;;;;4956572;28;20046;-81
2023/05/11 08:58:05;;;;;;;0.10;0.10;;;13.40;99.90;;;;;;4957463;28;20106;-81
2023/05/11 09:00:32;;;;;;;0.13;0.13;;;13.40;99.90;;;;;;4956492;28;20061;-81
2023/05/11 09:02:59;;;;;;;0.20;0.20;;;13.40;99.90;;;;;;4956589;28;20078;-81
2023/05/11 09:05:26;;;;;;;0.15;0.15;;;13.40;99.90;;;;;;4957270;28;20376;-81
2023/05/11 09:07:58;;;;;;;0.20;0.20;;;13.50;99.90;;;;;;4958663;28;20462;-81
2023/05/11 09:10:24;;;;;;;0.20;0.20;;;13.50;99.90;;;;;;4956235;28;20088;-81
2023/05/11 09:12:49;;;;;;;0.20;0.20;;;13.50;99.90;;;;;;4973488;28;20483;-81
2023/05/11 09:15:15;;;;;;;0.10;0.10;;;13.60;99.90;;;;;;4969070;28;20060;-82
2023/05/11 09:17:41;;;;;;;0.10;0.10;;;13.60;99.90;;;;;;4976063;28;20403;-81
2023/05/11 09:20:08;;;;;;;0.10;0.10;;;13.60;99.90;;;;;;4976537;28;20092;-82
2023/05/11 09:22:40;;;;;;;0.10;0.10;;;13.70;99.90;;;;;;4976242;28;20054;-82
2023/05/11 09:25:06;;;;;;;0.20;0.20;;;13.80;99.90;;;;;;4992423;28;20085;-81
2023/05/11 09:27:33;;;;;;;0.10;0.10;;;13.90;99.90;;;;;;4994015;28;20125;-82
2023/05/11 09:30:16;;;;;;;0.20;0.20;;;13.90;99.90;;;;;;4961330;28;20062;-81
2023/05/11 09:33:01;;;;;;;0.10;0.10;;;14.00;99.90;;;;;;4956655;28;20047;-81
2023/05/11 09:35:28;;;;;;;0.20;0.20;;;14.10;99.90;;;;;;4973856;28;20098;-81
2023/05/11 09:38:11;;;;;;;0.10;0.10;;;14.20;99.90;;;;;;4973308;28;20061;-82
2023/05/11 09:40:42;;;;;;;0.10;0.10;;;14.30;99.90;;;;;;4956981;28;20051;-81
2023/05/11 09:43:23;;;;;;;0.10;0.10;;;14.30;99.90;;;;;;4974053;28;20042;-82
2023/05/11 09:45:57;;;;;;;0.20;0.20;;;14.40;99.90;;;;;;4972256;28;20315;-82
2023/05/11 09:48:25;;;;;;;0.20;0.20;;;14.40;99.90;;;;;;4974213;28;20348;-82
2023/05/11 09:50:57;;;;;;;0.10;0.10;;;14.50;99.90;;;;;;4973611;28;20045;-82
2023/05/11 09:53:34;;;;;;;0.20;0.20;;;14.50;99.90;;;;;;4956169;28;20065;-82
2023/05/11 09:56:00;;;;;;;0.10;0.10;;;14.70;99.90;;;;;;4972807;28;20602;-81
2023/05/11 09:58:26;;;;;;;0.10;0.10;;;14.70;99.90;;;;;;4956551;28;20133;-82
2023/05/11 10:00:55;;;;;;;0.10;0.10;;;14.80;99.90;;;;;;4991700;28;20060;-82
2023/05/11 10:03:21;;;;;;;0.20;0.20;;;14.90;99.90;;;;;;4975798;28;20042;-82
2023/05/11 10:05:58;;;;;;;0.10;0.10;;;15.00;99.90;;;;;;4992197;28;20557;-82
2023/05/11 10:08:29;;;;;;;0.10;0.10;;;15.10;99.90;;;;;;4993215;28;20054;-81
2023/05/11 10:10:55;;;;;;;0.20;0.20;;;15.10;99.90;;;;;;4979725;28;20039;-81
2023/05/11 10:13:25;;;;;;;0.20;0.20;;;15.20;99.90;;;;;;4993167;28;20050;-81
2023/05/11 10:15:53;;;;;;;0.20;0.20;;;15.20;99.90;;;;;;4974313;28;20121;-82
2023/05/11 10:18:19;;;;;;;0.20;0.20;;;15.30;99.90;;;;;;4975255;28;20384;-82
2023/05/11 10:20:45;;;;;;;0.20;0.20;;;15.30;99.90;;;;;;4974198;28;20042;-81
2023/05/11 10:23:12;;;;;;;0.20;0.20;;;15.50;99.90;;;;;;4975132;28;20054;-81
2023/05/11 10:25:38;;;;;;;0.10;0.10;;;15.40;99.90;;;;;;4975201;28;20437;-82
2023/05/11 10:28:04;;;;;;;0.20;0.20;;;15.40;99.90;;;;;;4991859;28;20046;-81
2023/05/11 10:30:32;;;;;;;0.17;0.17;;;15.40;99.90;;;;;;4972453;28;20046;-81
2023/05/11 10:33:00;;;;;;;0.10;0.10;;;15.50;99.90;;;;;;4975169;28;20084;-81
2023/05/11 10:35:26;;;;;;;0.10;0.10;;;15.50;99.90;;;;;;4991336;28;20046;-82
2023/05/11 10:37:52;;;;;;;0.20;0.20;;;15.60;99.90;;;;;;4975070;28;20050;-82
2023/05/11 10:40:18;;;;;;;0.10;0.10;;;15.60;99.90;;;;;;4992379;28;20039;-81
2023/05/11 10:43:09;;;;;;;0.20;0.20;;;15.60;99.90;;;;;;4991652;28;20061;-81
2023/05/11 10:45:56;;;;;;;0.10;0.10;;;15.60;99.90;;;;;;4990678;28;20042;-82
2023/05/11 10:48:40;;;;;;;0.20;0.20;;;15.60;99.90;;;;;;4973332;28;20439;-81
2023/05/11 10:51:27;;;;;;;0.20;0.20;;;15.70;99.90;;;;;;4961071;28;20043;-81
2023/05/11 10:54:19;;;;;;;0.20;0.20;;;15.80;99.90;;;;;;4955632;28;20213;-82
2023/05/11 10:56:59;;;;;;;0.10;0.10;;;15.90;99.90;;;;;;4971016;28;20047;-82
2023/05/11 10:59:40;;;;;;;0.20;0.20;;;16.00;99.90;;;;;;4963266;28;20054;-82
2023/05/11 11:02:06;;;;;;;;;;;16.00;99.90;;;;;;4974432;28;20046;-79
2023/05/11 11:04:49;;;;;;;0.20;0.20;;;16.10;99.90;;;;;;4990662;28;20313;-82
2023/05/11 11:07:20;;;;;;;0.20;0.20;;;16.10;99.90;;;;;;4973800;28;20045;-82
2023/05/11 11:09:55;;;;;;;0.20;0.20;;;16.10;99.90;;;;;;4991002;28;20445;-82
2023/05/11 11:12:28;;;;;;;0.10;0.10;;;16.10;99.90;;;;;;4991550;28;20122;-82
2023/05/11 11:15:05;;;;;;;0.20;0.20;;;16.10;99.90;;;;;;4972761;28;20050;-82
2023/05/11 11:17:35;;;;;;;0.10;0.10;;;16.10;99.90;;;;;;4973996;28;20335;-82
2023/05/11 11:20:03;;;;;;;0.15;0.15;;;16.10;99.90;;;;;;4973974;28;20054;-82
2023/05/11 11:22:34;;;;;;;0.20;0.20;;;16.20;99.90;;;;;;4991884;28;20062;-82
2023/05/11 11:25:08;;;;;;;0.15;0.15;;;16.30;99.90;;;;;;4973390;28;20086;-82
2023/05/11 11:27:40;;;;;;;0.10;0.10;;;16.40;99.90;;;;;;4993723;28;20465;-82
2023/05/11 11:30:22;;;;;;;0.20;0.20;;;16.50;99.90;;;;;;4958199;28;20369;-81
2023/05/11 11:32:50;;;;;;;0.10;0.10;;;16.60;99.90;;;;;;4971747;28;20129;-82
2023/05/11 11:35:40;;;;;;;0.20;0.20;;;16.80;99.90;;;;;;4954698;28;20050;-82
2023/05/11 11:38:06;;;;;;;0.20;0.20;;;16.90;99.90;;;;;;4953947;28;20126;-82
2023/05/11 11:40:35;;;;;;;0.20;0.20;;;17.00;99.90;;;;;;4971645;28;20042;-82
2023/05/11 11:43:17;;;;;;;0.10;0.10;;;17.10;99.90;;;;;;4982530;28;20141;-82
2023/05/11 11:46:03;;;;;;;0.17;0.17;;;17.10;99.90;;;;;;4988003;28;20069;-83
2023/05/11 11:48:37;;;;;;;0.20;0.20;;;17.20;99.90;;;;;;4973739;28;20085;-82
2023/05/11 11:51:12;;;;;;;0.20;0.20;;;17.30;99.90;;;;;;4964085;28;20073;-83
2023/05/11 11:53:42;;;;;;;0.20;0.20;;;17.40;99.90;;;;;;4973263;28;20074;-82
2023/05/11 11:56:28;;;;;;;0.20;0.20;;;17.40;99.90;;;;;;4989918;28;20042;-83
2023/05/11 11:59:03;;;;;;;0.15;0.15;;;17.40;99.90;;;;;;4982317;28;20047;-83
2023/05/11 12:01:36;;;;;;;0.10;0.10;;;17.40;99.90;;;;;;4972689;28;20068;-83
2023/05/11 12:04:21;;;;;;;0.20;0.20;;;17.50;99.90;;;;;;4971881;28;20051;-82
2023/05/11 12:06:56;;;;;;;0.20;0.20;;;17.60;99.90;;;;;;4973785;28;20359;-82
2023/05/11 12:09:22;;;;;;;0.20;0.20;;;17.60;99.90;;;;;;4973580;28;20054;-83
2023/05/11 12:11:48;;;;;;;1.35;0.35;;;17.60;99.90;;;;;;4990646;28;20042;-83
2023/05/11 12:14:14;;;;;;;0.13;0.13;;;17.70;99.90;;;;;;4989620;28;20045;-83
2023/05/11 12:16:40;;;;;;;0.20;0.20;;;17.80;99.90;;;;;;4972123;28;20096;-81
2023/05/11 12:19:06;;;;;;;0.20;0.20;;;17.90;99.90;;;;;;4972728;28;20129;-80
2023/05/11 12:21:31;;;;;;;0.10;0.10;;;18.00;99.90;;;;;;4988358;28;20487;-83
2023/05/11 12:24:01;;;;;;;0.20;0.20;;;18.00;99.90;;;;;;4973398;28;20050;-83
2023/05/11 12:26:28;;;;;;;0.10;0.10;;;18.10;99.90;;;;;;4955711;28;20378;-81
2023/05/11 12:29:14;;;;;;;0.10;0.10;;;18.20;99.90;;;;;;4954649;28;20065;-81
2023/05/11 12:31:44;;;;;;;0.20;0.20;;;18.10;99.90;;;;;;4977724;28;20104;-81
2023/05/11 12:34:15;;;;;;;0.20;0.20;;;18.20;99.90;;;;;;4971988;28;20177;-80
2023/05/11 12:36:41;;;;;;;0.20;0.20;;;18.20;99.90;;;;;;4990042;28;20076;-80
2023/05/11 12:39:06;;;;;;;0.20;0.20;;;18.20;99.90;;;;;;4990016;28;20045;-83
2023/05/11 12:41:32;;;;;;;0.20;0.20;;;18.30;99.90;;;;;;4989314;28;20043;-83
2023/05/11 12:43:58;;;;;;;0.10;0.10;;;18.40;99.90;;;;;;4990572;28;20081;-81
2023/05/11 12:46:24;;;;;;;0.20;0.20;;;18.40;99.90;;;;;;4972638;28;20054;-81
2023/05/11 12:48:50;;;;;;;0.20;0.20;;;18.40;99.90;;;;;;4991971;28;20046;-81
2023/05/11 12:51:46;;;;;;;0.20;0.20;;;18.40;99.90;;;;;;4972541;28;20381;-83
2023/05/11 12:54:25;;;;;;;0.20;0.20;;;18.50;99.90;;;;;;4963269;28;20431;-81
2023/05/11 12:56:51;;;;;;;0.20;0.20;;;18.60;99.90;;;;;;4962619;28;20294;-82
2023/05/11 12:59:37;;;;;;;0.20;0.20;;;18.60;99.90;;;;;;4988658;28;20042;-82